sensor_id;sensor_type;location;lat;lon;timestamp;P1;durP1;ratioP1;P2;durP2;ratioP2
75465;SDS011;64049;46.290;44.240;2024-03-02T00:00:04;4.72;;;1.35;;
75465;SDS011;64049;46.290;44.240;2024-03-02T00:02:41;5.10;;;0.95;;
75465;SDS011;64049;46.290;44.240;2024-03-02T00:05:12;2.88;;;1.15;;
75465;SDS011;64049;46.290;44.240;2024-03-02T00:07:43;2.90;;;1.27;;
75465;SDS011;64049;46.290;44.240;2024-03-02T00:10:11;4.13;;;1.58;;
75465;SDS011;64049;46.290;44.240;2024-03-02T00:12:45;2.85;;;0.88;;
75465;SDS011;64049;46.290;44.240;2024-03-02T00:17:57;2.55;;;0.80;;
75465;SDS011;64049;46.290;44.240;2024-03-02T00:20:24;11.43;;;2.50;;
75465;SDS011;64049;46.290;44.240;2024-03-02T00:22:55;5.35;;;1.00;;
75465;SDS011;64049;46.290;44.240;2024-03-02T00:25:52;3.80;;;1.13;;
75465;SDS011;64049;46.290;44.240;2024-03-02T00:28:20;4.18;;;1.63;;
75465;SDS011;64049;46.290;44.240;2024-03-02T00:30:57;2.70;;;0.93;;
75465;SDS011;64049;46.290;44.240;2024-03-02T00:33:30;3.35;;;1.10;;
75465;SDS011;64049;46.290;44.240;2024-03-02T00:35:58;5.88;;;1.33;;
75465;SDS011;64049;46.290;44.240;2024-03-02T00:38:25;4.88;;;1.52;;
75465;SDS011;64049;46.290;44.240;2024-03-02T00:40:52;2.80;;;1.05;;
75465;SDS011;64049;46.290;44.240;2024-03-02T00:45:48;4.85;;;1.27;;
75465;SDS011;64049;46.290;44.240;2024-03-02T00:48:15;3.25;;;1.02;;
75465;SDS011;64049;46.290;44.240;2024-03-02T00:50:42;3.78;;;1.20;;
75465;SDS011;64049;46.290;44.240;2024-03-02T00:53:09;5.03;;;1.33;;
75465;SDS011;64049;46.290;44.240;2024-03-02T00:55:37;3.05;;;1.05;;
75465;SDS011;64049;46.290;44.240;2024-03-02T00:58:03;5.85;;;1.52;;
75465;SDS011;64049;46.290;44.240;2024-03-02T01:00:29;1.30;;;0.88;;
75465;SDS011;64049;46.290;44.240;2024-03-02T01:02:55;3.47;;;1.10;;
75465;SDS011;64049;46.290;44.240;2024-03-02T01:05:21;3.38;;;1.38;;
75465;SDS011;64049;46.290;44.240;2024-03-02T01:07:47;2.50;;;1.00;;
75465;SDS011;64049;46.290;44.240;2024-03-02T01:10:13;3.25;;;1.10;;
75465;SDS011;64049;46.290;44.240;2024-03-02T01:12:39;1.02;;;0.32;;
75465;SDS011;64049;46.290;44.240;2024-03-02T01:15:05;1.45;;;0.60;;
75465;SDS011;64049;46.290;44.240;2024-03-02T01:17:33;3.55;;;1.10;;
75465;SDS011;64049;46.290;44.240;2024-03-02T01:19:59;2.50;;;0.70;;
75465;SDS011;64049;46.290;44.240;2024-03-02T01:22:25;1.73;;;0.60;;
75465;SDS011;64049;46.290;44.240;2024-03-02T01:24:51;8.38;;;1.35;;
75465;SDS011;64049;46.290;44.240;2024-03-02T01:27:17;3.72;;;1.17;;
75465;SDS011;64049;46.290;44.240;2024-03-02T01:29:44;2.75;;;0.98;;
75465;SDS011;64049;46.290;44.240;2024-03-02T01:32:10;1.55;;;0.50;;
75465;SDS011;64049;46.290;44.240;2024-03-02T01:34:35;4.22;;;1.40;;
75465;SDS011;64049;46.290;44.240;2024-03-02T01:37:01;4.90;;;1.42;;
75465;SDS011;64049;46.290;44.240;2024-03-02T01:39:27;2.45;;;0.73;;
75465;SDS011;64049;46.290;44.240;2024-03-02T01:41:53;3.30;;;0.98;;
75465;SDS011;64049;46.290;44.240;2024-03-02T01:44:19;2.80;;;1.00;;
75465;SDS011;64049;46.290;44.240;2024-03-02T01:46:45;7.00;;;1.50;;
75465;SDS011;64049;46.290;44.240;2024-03-02T01:49:11;4.18;;;1.10;;
75465;SDS011;64049;46.290;44.240;2024-03-02T01:51:36;0.73;;;0.50;;
75465;SDS011;64049;46.290;44.240;2024-03-02T01:54:02;3.47;;;1.67;;
75465;SDS011;64049;46.290;44.240;2024-03-02T01:56:28;2.17;;;1.00;;
75465;SDS011;64049;46.290;44.240;2024-03-02T01:58:54;2.08;;;0.75;;
75465;SDS011;64049;46.290;44.240;2024-03-02T02:01:20;6.05;;;1.40;;
75465;SDS011;64049;46.290;44.240;2024-03-02T02:03:46;2.65;;;1.02;;
75465;SDS011;64049;46.290;44.240;2024-03-02T02:06:12;2.53;;;1.20;;
75465;SDS011;64049;46.290;44.240;2024-03-02T02:08:38;3.10;;;0.93;;
75465;SDS011;64049;46.290;44.240;2024-03-02T02:11:04;1.60;;;0.90;;
75465;SDS011;64049;46.290;44.240;2024-03-02T02:13:29;3.50;;;1.05;;
75465;SDS011;64049;46.290;44.240;2024-03-02T02:15:56;2.70;;;0.93;;
75465;SDS011;64049;46.290;44.240;2024-03-02T02:18:30;3.03;;;1.00;;
75465;SDS011;64049;46.290;44.240;2024-03-02T02:20:56;2.03;;;0.63;;
75465;SDS011;64049;46.290;44.240;2024-03-02T02:23:22;2.50;;;0.82;;
75465;SDS011;64049;46.290;44.240;2024-03-02T02:25:48;3.80;;;1.30;;
75465;SDS011;64049;46.290;44.240;2024-03-02T02:28:13;3.30;;;1.02;;
75465;SDS011;64049;46.290;44.240;2024-03-02T02:30:39;1.88;;;0.52;;
75465;SDS011;64049;46.290;44.240;2024-03-02T02:33:05;1.98;;;0.80;;
75465;SDS011;64049;46.290;44.240;2024-03-02T02:35:31;2.45;;;1.10;;
75465;SDS011;64049;46.290;44.240;2024-03-02T02:37:57;3.20;;;1.10;;
75465;SDS011;64049;46.290;44.240;2024-03-02T02:40:27;3.08;;;1.02;;
75465;SDS011;64049;46.290;44.240;2024-03-02T02:45:22;1.02;;;0.60;;
75465;SDS011;64049;46.290;44.240;2024-03-02T02:47:48;2.45;;;0.80;;
75465;SDS011;64049;46.290;44.240;2024-03-02T02:50:14;1.75;;;0.50;;
75465;SDS011;64049;46.290;44.240;2024-03-02T02:52:40;1.17;;;0.60;;
75465;SDS011;64049;46.290;44.240;2024-03-02T02:55:08;0.98;;;0.43;;
75465;SDS011;64049;46.290;44.240;2024-03-02T02:57:35;2.50;;;0.80;;
75465;SDS011;64049;46.290;44.240;2024-03-02T03:00:09;1.45;;;0.35;;
75465;SDS011;64049;46.290;44.240;2024-03-02T03:02:45;2.30;;;0.80;;
75465;SDS011;64049;46.290;44.240;2024-03-02T03:05:13;1.58;;;0.60;;
75465;SDS011;64049;46.290;44.240;2024-03-02T03:07:40;2.65;;;1.00;;
75465;SDS011;64049;46.290;44.240;2024-03-02T03:10:07;2.85;;;0.65;;
75465;SDS011;64049;46.290;44.240;2024-03-02T03:12:36;2.95;;;0.85;;
75465;SDS011;64049;46.290;44.240;2024-03-02T03:15:03;2.10;;;0.73;;
75465;SDS011;64049;46.290;44.240;2024-03-02T03:17:29;0.93;;;0.40;;
75465;SDS011;64049;46.290;44.240;2024-03-02T03:19:56;4.22;;;0.80;;
75465;SDS011;64049;46.290;44.240;2024-03-02T03:22:22;0.88;;;0.50;;
75465;SDS011;64049;46.290;44.240;2024-03-02T03:24:47;2.80;;;0.80;;
75465;SDS011;64049;46.290;44.240;2024-03-02T03:27:13;1.20;;;0.55;;
75465;SDS011;64049;46.290;44.240;2024-03-02T03:29:40;2.00;;;0.70;;
75465;SDS011;64049;46.290;44.240;2024-03-02T03:32:05;2.25;;;1.00;;
75465;SDS011;64049;46.290;44.240;2024-03-02T03:34:32;1.38;;;0.35;;
75465;SDS011;64049;46.290;44.240;2024-03-02T03:36:58;1.13;;;0.43;;
75465;SDS011;64049;46.290;44.240;2024-03-02T03:39:24;0.77;;;0.43;;
75465;SDS011;64049;46.290;44.240;2024-03-02T03:41:50;3.67;;;0.50;;
75465;SDS011;64049;46.290;44.240;2024-03-02T03:44:16;1.25;;;0.40;;
75465;SDS011;64049;46.290;44.240;2024-03-02T03:46:42;2.17;;;0.82;;
75465;SDS011;64049;46.290;44.240;2024-03-02T03:49:08;4.97;;;1.30;;
75465;SDS011;64049;46.290;44.240;2024-03-02T03:51:34;2.45;;;0.88;;
75465;SDS011;64049;46.290;44.240;2024-03-02T03:54:00;0.30;;;0.10;;
75465;SDS011;64049;46.290;44.240;2024-03-02T03:56:26;3.95;;;1.25;;
75465;SDS011;64049;46.290;44.240;2024-03-02T03:58:52;1.52;;;0.60;;
75465;SDS011;64049;46.290;44.240;2024-03-02T04:01:18;1.90;;;0.65;;
75465;SDS011;64049;46.290;44.240;2024-03-02T04:03:44;2.65;;;0.50;;
75465;SDS011;64049;46.290;44.240;2024-03-02T04:06:10;0.75;;;0.30;;
75465;SDS011;64049;46.290;44.240;2024-03-02T04:08:36;3.53;;;1.02;;
75465;SDS011;64049;46.290;44.240;2024-03-02T04:11:02;3.05;;;1.10;;
75465;SDS011;64049;46.290;44.240;2024-03-02T04:13:29;0.85;;;0.30;;
75465;SDS011;64049;46.290;44.240;2024-03-02T04:15:55;1.90;;;0.30;;
75465;SDS011;64049;46.290;44.240;2024-03-02T04:18:21;3.05;;;0.70;;
75465;SDS011;64049;46.290;44.240;2024-03-02T04:20:47;1.88;;;0.70;;
75465;SDS011;64049;46.290;44.240;2024-03-02T04:23:13;2.83;;;0.70;;
75465;SDS011;64049;46.290;44.240;2024-03-02T04:25:39;2.20;;;0.63;;
75465;SDS011;64049;46.290;44.240;2024-03-02T04:28:05;1.38;;;0.60;;
75465;SDS011;64049;46.290;44.240;2024-03-02T04:30:30;3.45;;;0.90;;
75465;SDS011;64049;46.290;44.240;2024-03-02T04:32:56;0.55;;;0.17;;
75465;SDS011;64049;46.290;44.240;2024-03-02T04:35:22;3.40;;;0.65;;
75465;SDS011;64049;46.290;44.240;2024-03-02T04:37:48;2.72;;;0.70;;
75465;SDS011;64049;46.290;44.240;2024-03-02T04:40:14;5.47;;;0.70;;
75465;SDS011;64049;46.290;44.240;2024-03-02T04:42:40;0.77;;;0.30;;
75465;SDS011;64049;46.290;44.240;2024-03-02T04:45:06;2.17;;;0.75;;
75465;SDS011;64049;46.290;44.240;2024-03-02T04:47:32;3.47;;;1.27;;
75465;SDS011;64049;46.290;44.240;2024-03-02T04:49:58;1.55;;;0.50;;
75465;SDS011;64049;46.290;44.240;2024-03-02T04:52:24;4.05;;;0.90;;
75465;SDS011;64049;46.290;44.240;2024-03-02T04:54:50;2.70;;;0.80;;
75465;SDS011;64049;46.290;44.240;2024-03-02T04:57:34;0.45;;;0.10;;
75465;SDS011;64049;46.290;44.240;2024-03-02T05:00:00;2.80;;;0.45;;
75465;SDS011;64049;46.290;44.240;2024-03-02T05:02:26;1.65;;;0.63;;
75465;SDS011;64049;46.290;44.240;2024-03-02T05:04:52;1.52;;;0.30;;
75465;SDS011;64049;46.290;44.240;2024-03-02T05:07:18;2.08;;;0.38;;
75465;SDS011;64049;46.290;44.240;2024-03-02T05:09:44;0.90;;;0.40;;
75465;SDS011;64049;46.290;44.240;2024-03-02T05:12:10;0.85;;;0.20;;
75465;SDS011;64049;46.290;44.240;2024-03-02T05:14:39;0.47;;;0.17;;
75465;SDS011;64049;46.290;44.240;2024-03-02T05:17:04;0.55;;;0.13;;
75465;SDS011;64049;46.290;44.240;2024-03-02T05:19:30;2.05;;;0.40;;
75465;SDS011;64049;46.290;44.240;2024-03-02T05:21:56;3.65;;;0.73;;
75465;SDS011;64049;46.290;44.240;2024-03-02T05:24:22;1.50;;;0.50;;
75465;SDS011;64049;46.290;44.240;2024-03-02T05:26:48;1.63;;;0.47;;
75465;SDS011;64049;46.290;44.240;2024-03-02T05:29:14;0.75;;;0.30;;
75465;SDS011;64049;46.290;44.240;2024-03-02T05:31:40;2.25;;;0.70;;
75465;SDS011;64049;46.290;44.240;2024-03-02T05:34:06;5.55;;;0.80;;
75465;SDS011;64049;46.290;44.240;2024-03-02T05:36:32;0.65;;;0.30;;
75465;SDS011;64049;46.290;44.240;2024-03-02T05:38:57;0.35;;;0.20;;
75465;SDS011;64049;46.290;44.240;2024-03-02T05:41:23;1.40;;;0.45;;
75465;SDS011;64049;46.290;44.240;2024-03-02T05:43:49;1.67;;;0.47;;
75465;SDS011;64049;46.290;44.240;2024-03-02T05:46:15;1.55;;;0.50;;
75465;SDS011;64049;46.290;44.240;2024-03-02T05:48:41;2.13;;;0.88;;
75465;SDS011;64049;46.290;44.240;2024-03-02T05:51:07;3.55;;;1.10;;
75465;SDS011;64049;46.290;44.240;2024-03-02T05:53:33;0.95;;;0.40;;
75465;SDS011;64049;46.290;44.240;2024-03-02T05:55:59;1.23;;;0.40;;
75465;SDS011;64049;46.290;44.240;2024-03-02T05:58:25;3.38;;;0.98;;
75465;SDS011;64049;46.290;44.240;2024-03-02T06:01:03;2.65;;;0.70;;
75465;SDS011;64049;46.290;44.240;2024-03-02T06:03:30;1.02;;;0.45;;
75465;SDS011;64049;46.290;44.240;2024-03-02T06:05:57;2.63;;;1.10;;
75465;SDS011;64049;46.290;44.240;2024-03-02T06:08:22;1.23;;;0.47;;
75465;SDS011;64049;46.290;44.240;2024-03-02T06:10:48;3.78;;;0.95;;
75465;SDS011;64049;46.290;44.240;2024-03-02T06:13:14;5.78;;;0.57;;
75465;SDS011;64049;46.290;44.240;2024-03-02T06:15:40;2.33;;;0.60;;
75465;SDS011;64049;46.290;44.240;2024-03-02T06:18:06;4.45;;;0.60;;
75465;SDS011;64049;46.290;44.240;2024-03-02T06:20:33;3.63;;;0.82;;
75465;SDS011;64049;46.290;44.240;2024-03-02T06:22:59;2.90;;;0.68;;
75465;SDS011;64049;46.290;44.240;2024-03-02T06:25:25;1.27;;;0.30;;
75465;SDS011;64049;46.290;44.240;2024-03-02T06:27:51;0.63;;;0.28;;
75465;SDS011;64049;46.290;44.240;2024-03-02T06:30:17;2.65;;;0.50;;
75465;SDS011;64049;46.290;44.240;2024-03-02T06:32:42;1.67;;;0.70;;
75465;SDS011;64049;46.290;44.240;2024-03-02T06:35:08;0.82;;;0.30;;
75465;SDS011;64049;46.290;44.240;2024-03-02T06:37:36;0.47;;;0.28;;
75465;SDS011;64049;46.290;44.240;2024-03-02T06:40:03;1.88;;;0.50;;
75465;SDS011;64049;46.290;44.240;2024-03-02T06:42:29;4.47;;;0.90;;
75465;SDS011;64049;46.290;44.240;2024-03-02T06:44:58;1.52;;;0.50;;
75465;SDS011;64049;46.290;44.240;2024-03-02T06:47:24;1.85;;;0.50;;
75465;SDS011;64049;46.290;44.240;2024-03-02T06:59:35;1.45;;;0.50;;
75465;SDS011;64049;46.290;44.240;2024-03-02T07:02:01;2.53;;;0.75;;
75465;SDS011;64049;46.290;44.240;2024-03-02T07:12:16;1.80;;;0.70;;
75465;SDS011;64049;46.290;44.240;2024-03-02T07:14:43;0.55;;;0.30;;
75465;SDS011;64049;46.290;44.240;2024-03-02T07:17:27;0.75;;;0.20;;
75465;SDS011;64049;46.290;44.240;2024-03-02T07:19:53;1.08;;;0.25;;
75465;SDS011;64049;46.290;44.240;2024-03-02T07:22:19;1.55;;;0.30;;
75465;SDS011;64049;46.290;44.240;2024-03-02T07:24:45;0.93;;;0.30;;
75465;SDS011;64049;46.290;44.240;2024-03-02T07:27:12;3.33;;;0.52;;
75465;SDS011;64049;46.290;44.240;2024-03-02T07:29:39;0.98;;;0.22;;
75465;SDS011;64049;46.290;44.240;2024-03-02T07:32:05;2.00;;;0.52;;
75465;SDS011;64049;46.290;44.240;2024-03-02T07:36:59;1.88;;;0.35;;
75465;SDS011;64049;46.290;44.240;2024-03-02T07:39:25;0.85;;;0.30;;
75465;SDS011;64049;46.290;44.240;2024-03-02T07:41:51;0.40;;;0.20;;
75465;SDS011;64049;46.290;44.240;2024-03-02T07:44:17;1.88;;;0.45;;
75465;SDS011;64049;46.290;44.240;2024-03-02T07:46:47;1.00;;;0.40;;
75465;SDS011;64049;46.290;44.240;2024-03-02T07:49:17;3.08;;;0.22;;
75465;SDS011;64049;46.290;44.240;2024-03-02T07:51:47;2.38;;;0.43;;
75465;SDS011;64049;46.290;44.240;2024-03-02T07:54:13;0.52;;;0.20;;
75465;SDS011;64049;46.290;44.240;2024-03-02T07:56:39;0.95;;;0.20;;
75465;SDS011;64049;46.290;44.240;2024-03-02T07:59:05;2.47;;;0.40;;
75465;SDS011;64049;46.290;44.240;2024-03-02T08:01:31;4.38;;;0.20;;
75465;SDS011;64049;46.290;44.240;2024-03-02T08:03:58;1.30;;;0.20;;
75465;SDS011;64049;46.290;44.240;2024-03-02T08:06:25;2.50;;;0.60;;
75465;SDS011;64049;46.290;44.240;2024-03-02T08:08:53;4.55;;;0.40;;
75465;SDS011;64049;46.290;44.240;2024-03-02T08:11:20;0.50;;;0.10;;
75465;SDS011;64049;46.290;44.240;2024-03-02T08:13:46;1.02;;;0.40;;
75465;SDS011;64049;46.290;44.240;2024-03-02T08:16:13;1.65;;;0.35;;
75465;SDS011;64049;46.290;44.240;2024-03-02T08:18:40;3.83;;;0.50;;
75465;SDS011;64049;46.290;44.240;2024-03-02T08:21:06;2.05;;;0.32;;
75465;SDS011;64049;46.290;44.240;2024-03-02T08:23:33;1.65;;;0.30;;
75465;SDS011;64049;46.290;44.240;2024-03-02T08:26:00;1.00;;;0.32;;
75465;SDS011;64049;46.290;44.240;2024-03-02T08:28:26;1.35;;;0.20;;
75465;SDS011;64049;46.290;44.240;2024-03-02T08:30:52;1.45;;;0.40;;
75465;SDS011;64049;46.290;44.240;2024-03-02T08:33:18;3.78;;;0.20;;
75465;SDS011;64049;46.290;44.240;2024-03-02T08:35:44;9.98;;;0.50;;
75465;SDS011;64049;46.290;44.240;2024-03-02T08:38:10;1.90;;;0.30;;
75465;SDS011;64049;46.290;44.240;2024-03-02T08:40:35;0.77;;;0.30;;
75465;SDS011;64049;46.290;44.240;2024-03-02T08:43:01;0.57;;;0.30;;
75465;SDS011;64049;46.290;44.240;2024-03-02T08:45:28;1.95;;;0.45;;
75465;SDS011;64049;46.290;44.240;2024-03-02T08:47:54;1.15;;;0.30;;
75465;SDS011;64049;46.290;44.240;2024-03-02T08:50:20;3.60;;;0.40;;
75465;SDS011;64049;46.290;44.240;2024-03-02T08:52:46;1.10;;;0.55;;
75465;SDS011;64049;46.290;44.240;2024-03-02T08:55:12;2.17;;;0.38;;
75465;SDS011;64049;46.290;44.240;2024-03-02T08:57:38;5.22;;;1.05;;
75465;SDS011;64049;46.290;44.240;2024-03-02T09:00:05;1.75;;;0.30;;
75465;SDS011;64049;46.290;44.240;2024-03-02T09:02:32;1.67;;;0.38;;
75465;SDS011;64049;46.290;44.240;2024-03-02T09:04:58;2.88;;;0.38;;
75465;SDS011;64049;46.290;44.240;2024-03-02T09:07:24;5.13;;;0.70;;
75465;SDS011;64049;46.290;44.240;2024-03-02T09:09:50;5.22;;;0.50;;
75465;SDS011;64049;46.290;44.240;2024-03-02T09:12:17;0.30;;;0.20;;
75465;SDS011;64049;46.290;44.240;2024-03-02T09:14:44;2.17;;;0.30;;
75465;SDS011;64049;46.290;44.240;2024-03-02T09:17:10;2.50;;;0.40;;
75465;SDS011;64049;46.290;44.240;2024-03-02T09:19:37;0.57;;;0.10;;
75465;SDS011;64049;46.290;44.240;2024-03-02T09:22:03;1.15;;;0.10;;
75465;SDS011;64049;46.290;44.240;2024-03-02T09:24:31;5.78;;;0.68;;
75465;SDS011;64049;46.290;44.240;2024-03-02T09:26:58;2.10;;;0.28;;
75465;SDS011;64049;46.290;44.240;2024-03-02T09:29:24;2.35;;;0.30;;
75465;SDS011;64049;46.290;44.240;2024-03-02T09:31:50;5.38;;;0.35;;
75465;SDS011;64049;46.290;44.240;2024-03-02T09:34:16;5.45;;;0.60;;
75465;SDS011;64049;46.290;44.240;2024-03-02T09:36:43;4.28;;;0.40;;
75465;SDS011;64049;46.290;44.240;2024-03-02T09:39:09;1.75;;;0.25;;
75465;SDS011;64049;46.290;44.240;2024-03-02T09:41:36;5.22;;;0.45;;
75465;SDS011;64049;46.290;44.240;2024-03-02T09:44:03;2.58;;;0.35;;
75465;SDS011;64049;46.290;44.240;2024-03-02T09:46:30;4.25;;;0.80;;
75465;SDS011;64049;46.290;44.240;2024-03-02T09:48:56;2.88;;;0.52;;
75465;SDS011;64049;46.290;44.240;2024-03-02T09:51:22;2.08;;;0.68;;
75465;SDS011;64049;46.290;44.240;2024-03-02T09:53:48;2.53;;;0.40;;
75465;SDS011;64049;46.290;44.240;2024-03-02T09:56:15;4.18;;;0.52;;
75465;SDS011;64049;46.290;44.240;2024-03-02T09:58:41;1.25;;;0.25;;
75465;SDS011;64049;46.290;44.240;2024-03-02T10:01:07;1.20;;;0.30;;
75465;SDS011;64049;46.290;44.240;2024-03-02T10:03:36;5.07;;;0.32;;
75465;SDS011;64049;46.290;44.240;2024-03-02T10:06:18;1.35;;;0.30;;
75465;SDS011;64049;46.290;44.240;2024-03-02T10:08:44;0.75;;;0.30;;
75465;SDS011;64049;46.290;44.240;2024-03-02T10:11:10;1.95;;;0.50;;
75465;SDS011;64049;46.290;44.240;2024-03-02T10:13:36;3.38;;;0.40;;
75465;SDS011;64049;46.290;44.240;2024-03-02T10:16:11;1.88;;;0.50;;
75465;SDS011;64049;46.290;44.240;2024-03-02T10:18:37;2.90;;;0.38;;
75465;SDS011;64049;46.290;44.240;2024-03-02T10:21:13;7.43;;;0.52;;
75465;SDS011;64049;46.290;44.240;2024-03-02T10:23:40;3.72;;;0.65;;
75465;SDS011;64049;46.290;44.240;2024-03-02T10:26:16;3.30;;;0.20;;
75465;SDS011;64049;46.290;44.240;2024-03-02T10:28:47;2.60;;;0.32;;
75465;SDS011;64049;46.290;44.240;2024-03-02T10:31:13;6.07;;;0.40;;
75465;SDS011;64049;46.290;44.240;2024-03-02T10:33:39;2.92;;;0.28;;
75465;SDS011;64049;46.290;44.240;2024-03-02T10:36:05;6.15;;;0.98;;
75465;SDS011;64049;46.290;44.240;2024-03-02T10:38:32;5.90;;;0.25;;
75465;SDS011;64049;46.290;44.240;2024-03-02T10:40:59;4.38;;;0.40;;
75465;SDS011;64049;46.290;44.240;2024-03-02T10:43:26;1.55;;;0.20;;
75465;SDS011;64049;46.290;44.240;2024-03-02T10:45:51;5.93;;;0.60;;
75465;SDS011;64049;46.290;44.240;2024-03-02T10:48:18;6.35;;;1.65;;
75465;SDS011;64049;46.290;44.240;2024-03-02T10:50:44;1.63;;;0.40;;
75465;SDS011;64049;46.290;44.240;2024-03-02T10:53:11;1.75;;;0.22;;
75465;SDS011;64049;46.290;44.240;2024-03-02T10:55:37;1.60;;;0.50;;
75465;SDS011;64049;46.290;44.240;2024-03-02T10:58:04;2.35;;;0.55;;
75465;SDS011;64049;46.290;44.240;2024-03-02T11:00:33;3.75;;;0.98;;
75465;SDS011;64049;46.290;44.240;2024-03-02T11:03:07;1.85;;;0.43;;
75465;SDS011;64049;46.290;44.240;2024-03-02T11:05:36;5.82;;;0.80;;
75465;SDS011;64049;46.290;44.240;2024-03-02T11:08:13;1.58;;;0.30;;
75465;SDS011;64049;46.290;44.240;2024-03-02T11:10:51;7.93;;;0.75;;
75465;SDS011;64049;46.290;44.240;2024-03-02T11:13:32;0.98;;;0.10;;
75465;SDS011;64049;46.290;44.240;2024-03-02T11:16:03;7.18;;;0.68;;
75465;SDS011;64049;46.290;44.240;2024-03-02T11:18:31;4.10;;;0.43;;
75465;SDS011;64049;46.290;44.240;2024-03-02T11:20:58;1.35;;;0.32;;
75465;SDS011;64049;46.290;44.240;2024-03-02T11:23:34;2.80;;;0.57;;
75465;SDS011;64049;46.290;44.240;2024-03-02T11:26:18;11.38;;;1.15;;
75465;SDS011;64049;46.290;44.240;2024-03-02T11:28:47;3.67;;;1.17;;
75465;SDS011;64049;46.290;44.240;2024-03-02T11:31:13;1.38;;;0.25;;
75465;SDS011;64049;46.290;44.240;2024-03-02T11:33:39;5.05;;;0.63;;
75465;SDS011;64049;46.290;44.240;2024-03-02T11:36:08;6.80;;;0.82;;
75465;SDS011;64049;46.290;44.240;2024-03-02T11:38:35;4.68;;;0.40;;
75465;SDS011;64049;46.290;44.240;2024-03-02T11:41:02;4.75;;;0.68;;
75465;SDS011;64049;46.290;44.240;2024-03-02T11:43:32;0.65;;;0.20;;
75465;SDS011;64049;46.290;44.240;2024-03-02T11:45:59;4.47;;;0.85;;
75465;SDS011;64049;46.290;44.240;2024-03-02T11:48:25;1.40;;;0.50;;
75465;SDS011;64049;46.290;44.240;2024-03-02T11:50:52;5.70;;;0.57;;
75465;SDS011;64049;46.290;44.240;2024-03-02T11:53:20;4.40;;;0.77;;
75465;SDS011;64049;46.290;44.240;2024-03-02T12:07:49;3.92;;;1.50;;
75465;SDS011;64049;46.290;44.240;2024-03-02T12:10:24;15.43;;;1.13;;
75465;SDS011;64049;46.290;44.240;2024-03-02T12:12:57;6.45;;;1.15;;
75465;SDS011;64049;46.290;44.240;2024-03-02T12:15:32;7.30;;;1.15;;
75465;SDS011;64049;46.290;44.240;2024-03-02T12:18:00;2.63;;;0.40;;
75465;SDS011;64049;46.290;44.240;2024-03-02T12:20:28;4.38;;;0.57;;
75465;SDS011;64049;46.290;44.240;2024-03-02T12:22:55;1.08;;;0.30;;
75465;SDS011;64049;46.290;44.240;2024-03-02T12:25:23;4.20;;;0.50;;
75465;SDS011;64049;46.290;44.240;2024-03-02T12:27:51;4.20;;;0.50;;
75465;SDS011;64049;46.290;44.240;2024-03-02T12:30:22;2.03;;;0.30;;
75465;SDS011;64049;46.290;44.240;2024-03-02T12:32:49;3.88;;;0.50;;
75465;SDS011;64049;46.290;44.240;2024-03-02T12:35:15;1.60;;;0.50;;
75465;SDS011;64049;46.290;44.240;2024-03-02T12:37:43;11.73;;;0.98;;
75465;SDS011;64049;46.290;44.240;2024-03-02T12:40:10;3.55;;;0.77;;
75465;SDS011;64049;46.290;44.240;2024-03-02T12:42:38;3.78;;;0.40;;
75465;SDS011;64049;46.290;44.240;2024-03-02T12:45:05;3.80;;;0.47;;
75465;SDS011;64049;46.290;44.240;2024-03-02T12:47:32;5.50;;;0.70;;
75465;SDS011;64049;46.290;44.240;2024-03-02T12:49:59;3.72;;;0.70;;
75465;SDS011;64049;46.290;44.240;2024-03-02T12:52:26;6.78;;;1.27;;
75465;SDS011;64049;46.290;44.240;2024-03-02T12:54:52;1.30;;;0.50;;
75465;SDS011;64049;46.290;44.240;2024-03-02T12:57:24;4.57;;;0.57;;
75465;SDS011;64049;46.290;44.240;2024-03-02T13:02:30;6.25;;;0.88;;
75465;SDS011;64049;46.290;44.240;2024-03-02T13:04:58;2.88;;;0.95;;
75465;SDS011;64049;46.290;44.240;2024-03-02T13:07:24;1.80;;;0.63;;
75465;SDS011;64049;46.290;44.240;2024-03-02T13:09:52;5.35;;;1.30;;
75465;SDS011;64049;46.290;44.240;2024-03-02T13:12:20;5.10;;;2.08;;
75465;SDS011;64049;46.290;44.240;2024-03-02T13:22:21;6.65;;;1.30;;
75465;SDS011;64049;46.290;44.240;2024-03-02T13:24:48;8.95;;;1.27;;
75465;SDS011;64049;46.290;44.240;2024-03-02T13:27:14;5.53;;;2.22;;
75465;SDS011;64049;46.290;44.240;2024-03-02T13:29:41;7.30;;;2.60;;
75465;SDS011;64049;46.290;44.240;2024-03-02T13:32:09;8.40;;;2.65;;
75465;SDS011;64049;46.290;44.240;2024-03-02T13:34:35;8.25;;;2.78;;
75465;SDS011;64049;46.290;44.240;2024-03-02T13:37:02;10.70;;;2.55;;
75465;SDS011;64049;46.290;44.240;2024-03-02T13:41:57;6.45;;;2.92;;
75465;SDS011;64049;46.290;44.240;2024-03-02T13:44:31;6.00;;;2.33;;
75465;SDS011;64049;46.290;44.240;2024-03-02T13:46:58;5.55;;;1.58;;
75465;SDS011;64049;46.290;44.240;2024-03-02T13:49:25;2.58;;;1.00;;
75465;SDS011;64049;46.290;44.240;2024-03-02T13:52:07;7.40;;;1.50;;
75465;SDS011;64049;46.290;44.240;2024-03-02T13:54:38;7.22;;;1.48;;
75465;SDS011;64049;46.290;44.240;2024-03-02T13:57:05;4.63;;;1.63;;
75465;SDS011;64049;46.290;44.240;2024-03-02T13:59:33;21.05;;;2.30;;
75465;SDS011;64049;46.290;44.240;2024-03-02T14:02:00;2.65;;;1.08;;
75465;SDS011;64049;46.290;44.240;2024-03-02T14:04:27;8.93;;;1.27;;
75465;SDS011;64049;46.290;44.240;2024-03-02T14:06:54;2.38;;;0.93;;
75465;SDS011;64049;46.290;44.240;2024-03-02T14:09:19;7.90;;;1.17;;
75465;SDS011;64049;46.290;44.240;2024-03-02T14:11:46;4.20;;;1.13;;
75465;SDS011;64049;46.290;44.240;2024-03-02T14:14:12;3.33;;;0.90;;
75465;SDS011;64049;46.290;44.240;2024-03-02T14:16:37;3.95;;;1.15;;
75465;SDS011;64049;46.290;44.240;2024-03-02T14:19:03;6.28;;;1.50;;
75465;SDS011;64049;46.290;44.240;2024-03-02T14:21:30;5.05;;;1.02;;
75465;SDS011;64049;46.290;44.240;2024-03-02T14:23:56;5.72;;;1.05;;
75465;SDS011;64049;46.290;44.240;2024-03-02T14:26:22;2.00;;;0.80;;
75465;SDS011;64049;46.290;44.240;2024-03-02T14:28:48;2.50;;;1.00;;
75465;SDS011;64049;46.290;44.240;2024-03-02T14:31:14;2.25;;;0.57;;
75465;SDS011;64049;46.290;44.240;2024-03-02T14:33:40;2.22;;;0.63;;
75465;SDS011;64049;46.290;44.240;2024-03-02T14:36:06;2.08;;;0.68;;
75465;SDS011;64049;46.290;44.240;2024-03-02T14:38:32;3.65;;;0.90;;
75465;SDS011;64049;46.290;44.240;2024-03-02T14:40:58;6.28;;;1.20;;
75465;SDS011;64049;46.290;44.240;2024-03-02T14:43:24;4.10;;;1.08;;
75465;SDS011;64049;46.290;44.240;2024-03-02T14:45:50;2.65;;;0.85;;
75465;SDS011;64049;46.290;44.240;2024-03-02T14:48:16;6.82;;;0.73;;
75465;SDS011;64049;46.290;44.240;2024-03-02T14:50:42;3.63;;;0.82;;
75465;SDS011;64049;46.290;44.240;2024-03-02T14:53:08;2.55;;;0.60;;
75465;SDS011;64049;46.290;44.240;2024-03-02T14:55:33;4.00;;;0.75;;
75465;SDS011;64049;46.290;44.240;2024-03-02T14:57:59;14.57;;;1.25;;
75465;SDS011;64049;46.290;44.240;2024-03-02T15:00:25;1.90;;;0.57;;
75465;SDS011;64049;46.290;44.240;2024-03-02T15:02:51;1.15;;;0.60;;
75465;SDS011;64049;46.290;44.240;2024-03-02T15:05:17;2.00;;;0.60;;
75465;SDS011;64049;46.290;44.240;2024-03-02T15:07:43;2.10;;;0.38;;
75465;SDS011;64049;46.290;44.240;2024-03-02T15:10:09;2.78;;;1.60;;
75465;SDS011;64049;46.290;44.240;2024-03-02T15:12:37;5.38;;;0.80;;
75465;SDS011;64049;46.290;44.240;2024-03-02T15:15:03;1.98;;;0.50;;
75465;SDS011;64049;46.290;44.240;2024-03-02T15:17:29;2.50;;;0.55;;
75465;SDS011;64049;46.290;44.240;2024-03-02T15:19:55;6.10;;;0.55;;
75465;SDS011;64049;46.290;44.240;2024-03-02T15:22:21;2.22;;;0.65;;
75465;SDS011;64049;46.290;44.240;2024-03-02T15:24:47;1.95;;;0.70;;